createdAt,value
2022-11-07T00:01:19.527Z,1.73
2022-11-07T00:03:46.730Z,4.55
2022-11-07T00:06:13.532Z,1.27
2022-11-07T00:08:40.328Z,2.60
2022-11-07T00:11:07.635Z,1.85
2022-11-07T00:13:34.676Z,2.85
2022-11-07T00:16:03.389Z,1.38
2022-11-07T00:18:30.441Z,0.85
2022-11-07T00:21:04.656Z,1.75
2022-11-07T00:23:33.714Z,1.30
2022-11-07T00:26:04.540Z,1.48
2022-11-07T00:28:39.794Z,1.23
2022-11-07T00:31:07.910Z,3.60
2022-11-07T00:33:35.197Z,2.17
2022-11-07T00:36:02.490Z,0.73
2022-11-07T00:38:29.639Z,1.20
2022-11-07T00:41:04.895Z,2.10
2022-11-07T00:43:32.469Z,1.35
2022-11-07T00:46:01.802Z,1.48
2022-11-07T00:48:29.529Z,2.50
2022-11-07T00:50:56.325Z,2.25
2022-11-07T00:53:23.969Z,0.85
2022-11-07T00:55:50.747Z,1.45
2022-11-07T00:58:17.927Z,0.93
2022-11-07T01:00:45.287Z,1.00
2022-11-07T01:03:30.614Z,4.93
2022-11-07T01:06:03.011Z,1.85
2022-11-07T01:08:31.108Z,1.27
2022-11-07T01:10:59.257Z,1.13
2022-11-07T01:13:26.370Z,2.55
2022-11-07T01:15:53.621Z,2.42
2022-11-07T01:18:20.922Z,1.60
2022-11-07T01:20:49.527Z,2.40
2022-11-07T01:23:18.033Z,2.33
2022-11-07T01:25:45.052Z,1.10
2022-11-07T01:28:11.907Z,1.92
2022-11-07T01:30:43.579Z,1.50
2022-11-07T01:33:10.760Z,3.75
2022-11-07T01:35:37.823Z,1.25
2022-11-07T01:38:04.915Z,3.65
2022-11-07T01:40:33.821Z,2.28
2022-11-07T01:43:00.562Z,2.47
2022-11-07T01:45:30.919Z,2.70
2022-11-07T01:48:01.177Z,2.72
2022-11-07T01:50:28.413Z,3.60
2022-11-07T01:52:57.137Z,3.92
2022-11-07T01:55:29.702Z,3.88
2022-11-07T01:58:01.878Z,3.47
2022-11-07T02:00:30.997Z,2.13
2022-11-07T02:03:08.002Z,1.75
2022-11-07T02:05:38.824Z,3.17
2022-11-07T02:08:08.441Z,2.30
2022-11-07T02:10:36.741Z,1.50
2022-11-07T02:13:03.945Z,3.28
2022-11-07T02:15:32.472Z,5.90
2022-11-07T02:18:00.189Z,1.75
2022-11-07T02:20:27.342Z,1.88
2022-11-07T02:23:13.562Z,2.95
2022-11-07T02:25:40.868Z,2.45
2022-11-07T02:28:10.132Z,2.20
2022-11-07T02:30:38.836Z,3.97
2022-11-07T02:33:17.885Z,1.45
2022-11-07T02:35:47.216Z,1.50
2022-11-07T02:38:37.088Z,1.88
2022-11-07T02:41:14.392Z,1.73
2022-11-07T02:43:51.546Z,2.85
2022-11-07T02:46:18.663Z,3.38
2022-11-07T02:48:48.624Z,0.90
2022-11-07T02:51:15.574Z,2.50
2022-11-07T02:53:42.587Z,2.95
2022-11-07T02:56:10.047Z,2.08
2022-11-07T02:58:36.930Z,2.00
2022-11-07T03:01:12.246Z,4.40
2022-11-07T03:03:45.067Z,1.88
2022-11-07T03:06:15.518Z,1.85
2022-11-07T03:08:43.187Z,2.42
2022-11-07T03:11:11.745Z,3.50
2022-11-07T03:13:38.893Z,2.78
2022-11-07T03:16:10.387Z,1.58
2022-11-07T03:18:37.788Z,6.13
2022-11-07T03:21:05.619Z,1.70
2022-11-07T03:23:34.390Z,1.75
2022-11-07T03:26:01.122Z,2.22
2022-11-07T03:28:27.889Z,1.92
2022-11-07T03:30:54.677Z,1.85
2022-11-07T03:33:21.492Z,3.33
2022-11-07T03:35:48.609Z,2.40
2022-11-07T03:38:15.380Z,2.25
2022-11-07T03:40:42.116Z,2.05
2022-11-07T03:43:08.923Z,4.63
2022-11-07T03:45:35.716Z,1.77
2022-11-07T03:48:02.490Z,2.55
2022-11-07T03:50:29.517Z,3.28
2022-11-07T03:52:56.285Z,2.05
2022-11-07T03:55:23.040Z,1.77
2022-11-07T03:57:49.814Z,1.98
2022-11-07T04:00:17.639Z,3.65
2022-11-07T04:02:44.995Z,1.85
2022-11-07T04:05:12.392Z,3.22
2022-11-07T04:07:39.240Z,1.77
2022-11-07T04:10:06.413Z,1.80
2022-11-07T04:12:52.138Z,1.20
2022-11-07T04:15:37.530Z,2.60
2022-11-07T04:18:04.448Z,3.22
2022-11-07T04:20:31.185Z,2.53
2022-11-07T04:22:58.004Z,4.28
2022-11-07T04:25:44.972Z,3.30
2022-11-07T04:28:11.750Z,1.42
2022-11-07T04:30:38.513Z,2.47
2022-11-07T04:33:05.632Z,3.40
2022-11-07T04:35:33.800Z,3.42
2022-11-07T04:38:01.590Z,3.03
2022-11-07T04:40:29.659Z,1.80
2022-11-07T04:42:57.037Z,4.90
2022-11-07T04:45:23.863Z,0.73
2022-11-07T04:47:50.627Z,1.90
2022-11-07T04:50:19.046Z,3.08
2022-11-07T04:52:46.952Z,0.90
2022-11-07T04:55:20.786Z,1.38
2022-11-07T04:57:48.519Z,3.55
2022-11-07T05:00:16.602Z,2.13
2022-11-07T05:02:43.488Z,3.03
2022-11-07T05:05:10.846Z,2.28
2022-11-07T05:07:38.053Z,3.25
2022-11-07T05:10:10.916Z,2.65
2022-11-07T05:12:38.958Z,4.15
2022-11-07T05:15:06.325Z,6.05
2022-11-07T05:17:33.118Z,3.53
2022-11-07T05:19:59.840Z,2.95
2022-11-07T05:22:45.230Z,4.47
2022-11-07T05:25:11.974Z,6.22
2022-11-07T05:27:38.865Z,5.20
2022-11-07T05:30:06.697Z,3.00
2022-11-07T05:32:41.293Z,3.72
2022-11-07T05:35:08.404Z,6.32
2022-11-07T05:37:35.194Z,3.00
2022-11-07T05:40:01.903Z,4.13
2022-11-07T05:42:28.649Z,5.13
2022-11-07T05:44:55.570Z,2.85
2022-11-07T05:47:22.392Z,3.50
2022-11-07T05:49:49.124Z,2.58
2022-11-07T05:52:15.896Z,2.33
2022-11-07T05:54:42.650Z,4.10
2022-11-07T05:57:09.398Z,5.43
2022-11-07T05:59:36.188Z,3.63
2022-11-07T06:02:03.114Z,3.22
2022-11-07T06:04:29.969Z,3.40
2022-11-07T06:06:56.814Z,3.13
2022-11-07T06:09:23.585Z,6.10
2022-11-07T06:11:50.358Z,5.20
2022-11-07T06:14:17.157Z,3.85
2022-11-07T06:16:43.927Z,5.38
2022-11-07T06:19:10.705Z,2.85
2022-11-07T06:21:37.476Z,5.60
2022-11-07T06:24:04.511Z,5.22
2022-11-07T06:26:31.403Z,4.50
2022-11-07T06:28:58.304Z,3.60
2022-11-07T06:31:25.416Z,7.25
2022-11-07T06:33:52.374Z,5.78
2022-11-07T06:36:19.380Z,5.47
2022-11-07T06:38:46.506Z,4.82
2022-11-07T06:41:14.935Z,4.93
2022-11-07T06:43:42.287Z,6.15
2022-11-07T06:46:13.606Z,7.13
2022-11-07T06:48:40.838Z,4.63
2022-11-07T06:51:09.874Z,5.88
2022-11-07T06:53:37.286Z,5.53
2022-11-07T06:56:06.950Z,8.25
2022-11-07T06:58:56.953Z,6.70
2022-11-07T07:01:24.115Z,4.28
2022-11-07T07:03:51.144Z,5.82
2022-11-07T07:06:55.222Z,5.15
2022-11-07T07:09:33.892Z,3.65
2022-11-07T07:12:07.695Z,4.63
2022-11-07T07:14:37.586Z,5.78
2022-11-07T07:17:19.205Z,7.00
2022-11-07T07:19:48.702Z,9.80
2022-11-07T07:22:15.670Z,7.50
2022-11-07T07:24:46.155Z,8.73
2022-11-07T07:27:15.907Z,7.72
2022-11-07T07:29:43.268Z,9.95
2022-11-07T07:32:10.240Z,6.20
2022-11-07T07:34:37.697Z,6.13
2022-11-07T07:37:04.843Z,8.70
2022-11-07T07:39:31.930Z,4.53
2022-11-07T07:42:04.122Z,10.00
2022-11-07T07:44:36.095Z,7.57
2022-11-07T07:47:07.040Z,9.95
2022-11-07T07:49:39.961Z,6.05
2022-11-07T07:52:07.372Z,10.75
2022-11-07T07:54:37.772Z,6.30
2022-11-07T07:57:25.966Z,3.72
2022-11-07T08:00:13.086Z,3.92
2022-11-07T08:02:45.903Z,2.75
2022-11-07T08:05:27.085Z,5.78
2022-11-07T08:07:59.182Z,6.22
2022-11-07T08:10:42.393Z,5.05
2022-11-07T08:15:48.580Z,8.43
2022-11-07T08:18:24.595Z,9.10
2022-11-07T08:21:11.783Z,4.25
2022-11-07T08:24:01.947Z,6.50
2022-11-07T08:26:31.747Z,4.30
2022-11-07T08:58:19.000Z,4.47
2022-11-07T09:01:19.219Z,3.22
2022-11-07T09:04:03.733Z,6.45
2022-11-07T09:06:32.843Z,5.70
2022-11-07T09:09:01.315Z,5.60
2022-11-07T09:11:28.531Z,6.03
2022-11-07T09:14:05.725Z,5.93
2022-11-07T09:16:44.366Z,3.97
2022-11-07T09:19:11.202Z,5.70
2022-11-07T09:24:33.644Z,4.72
2022-11-07T09:27:25.460Z,4.50
2022-11-07T09:29:52.531Z,4.00
2022-11-07T09:32:49.295Z,6.13
2022-11-07T09:35:16.476Z,5.07
2022-11-07T09:37:47.264Z,4.63
2022-11-07T09:40:30.982Z,6.50
2022-11-07T09:43:32.864Z,4.53
2022-11-07T09:46:22.159Z,5.03
2022-11-07T09:49:02.890Z,10.13
2022-11-07T09:51:43.651Z,7.50
2022-11-07T09:54:21.666Z,8.52
2022-11-07T09:56:48.486Z,7.53
2022-11-07T09:59:24.723Z,10.50
2022-11-07T10:01:51.613Z,5.85
2022-11-07T10:05:24.269Z,5.35
2022-11-07T10:08:17.130Z,8.02
2022-11-07T10:10:44.848Z,3.05
2022-11-07T10:14:00.143Z,7.85
2022-11-07T10:17:31.230Z,6.07
2022-11-07T10:20:39.300Z,6.75
2022-11-07T10:26:35.811Z,6.82
2022-11-07T10:29:51.053Z,6.35
2022-11-07T10:32:59.784Z,4.88
2022-11-07T10:36:56.141Z,8.02
2022-11-07T10:39:42.410Z,7.20
2022-11-07T10:42:26.267Z,6.65
2022-11-07T10:45:15.242Z,3.60
2022-11-07T10:48:02.209Z,7.35
2022-11-07T10:50:43.575Z,7.13
2022-11-07T10:53:48.430Z,4.22
2022-11-07T11:00:33.543Z,6.50
2022-11-07T11:09:36.640Z,5.50
2022-11-07T11:12:21.456Z,6.28
2022-11-07T11:16:16.152Z,7.00
2022-11-07T11:19:30.136Z,3.58
2022-11-07T11:26:14.478Z,6.07
2022-11-07T11:28:54.499Z,4.95
2022-11-07T11:31:41.381Z,3.97
2022-11-07T11:34:40.070Z,5.90
2022-11-07T11:37:34.654Z,6.00
2022-11-07T11:41:24.968Z,4.22
2022-11-07T11:47:34.282Z,4.82
2022-11-07T11:51:07.421Z,6.25
2022-11-07T11:53:48.543Z,4.85
2022-11-07T11:57:09.913Z,4.07
2022-11-07T12:00:23.832Z,5.88
2022-11-07T12:06:30.691Z,6.40
2022-11-07T12:09:05.559Z,5.75
2022-11-07T12:12:55.788Z,3.38
2022-11-07T12:16:15.740Z,2.53
2022-11-07T12:19:23.553Z,5.07
2022-11-07T12:22:32.159Z,3.55
2022-11-07T12:33:22.201Z,2.58
2022-11-07T12:46:56.982Z,3.30
2022-11-07T13:02:23.682Z,4.15
2022-11-07T13:12:17.505Z,5.47
2022-11-07T13:16:08.893Z,3.28
2022-11-07T13:18:54.016Z,4.18
2022-11-07T13:22:24.567Z,5.63
2022-11-07T13:48:42.346Z,4.18
2022-11-07T13:55:43.811Z,3.78
2022-11-07T13:59:14.273Z,3.25
2022-11-07T14:02:27.123Z,5.43
2022-11-07T14:05:32.691Z,6.22
2022-11-07T14:14:00.969Z,7.18
2022-11-07T14:16:40.811Z,6.03
2022-11-07T14:19:33.143Z,4.53
2022-11-07T14:28:20.693Z,5.90
2022-11-07T14:37:57.760Z,4.55
2022-11-07T14:40:44.586Z,5.78
2022-11-07T14:52:16.552Z,4.55
2022-11-07T14:59:01.580Z,6.13
2022-11-07T15:23:25.692Z,4.00
2022-11-07T15:30:46.413Z,5.25
2022-11-07T15:36:23.009Z,3.72
2022-11-07T15:40:33.640Z,2.92
2022-11-07T15:42:57.991Z,4.35
2022-11-07T15:46:40.570Z,4.72
2022-11-07T15:54:21.607Z,4.50
2022-11-07T16:00:19.914Z,2.83
2022-11-07T16:07:15.441Z,3.25
2022-11-07T16:24:06.898Z,5.20
2022-11-07T16:27:27.996Z,4.70
2022-11-07T16:37:25.181Z,4.63
2022-11-07T16:49:08.704Z,6.93
2022-11-07T17:00:24.257Z,4.80
2022-11-07T17:03:34.025Z,4.22
2022-11-07T17:13:37.612Z,5.05
2022-11-07T17:16:46.956Z,7.43
2022-11-07T17:19:47.038Z,8.52
2022-11-07T17:22:20.112Z,4.38
2022-11-07T17:24:58.711Z,5.82
2022-11-07T17:28:04.843Z,4.72
2022-11-07T17:31:30.144Z,4.38
2022-11-07T17:34:28.028Z,8.90
2022-11-07T17:44:33.123Z,6.05
2022-11-07T18:24:22.835Z,9.68
2022-11-07T18:27:26.150Z,6.95
2022-11-07T18:37:20.858Z,8.27
2022-11-07T18:47:18.870Z,7.20
2022-11-07T18:53:48.974Z,4.90
2022-11-07T19:00:52.751Z,10.75
2022-11-07T19:03:28.634Z,7.43
2022-11-07T19:07:39.804Z,11.15
2022-11-07T19:10:11.223Z,12.88
2022-11-07T19:17:58.375Z,12.65
2022-11-07T19:22:05.379Z,9.38
2022-11-07T19:28:00.516Z,9.25
2022-11-07T19:30:52.482Z,7.38
2022-11-07T19:37:20.624Z,9.38
2022-11-07T19:39:57.240Z,6.97
2022-11-07T19:42:58.082Z,6.85
2022-11-07T19:49:06.346Z,7.38
2022-11-07T19:52:11.685Z,8.23
2022-11-07T19:58:16.933Z,6.30
2022-11-07T20:01:39.538Z,10.90
2022-11-07T20:05:12.923Z,4.53
2022-11-07T20:22:26.912Z,5.22
2022-11-07T20:25:06.960Z,6.35
2022-11-07T20:32:52.879Z,7.07
2022-11-07T20:36:08.633Z,10.38
2022-11-07T20:39:06.327Z,10.20
2022-11-07T20:42:28.670Z,6.43
2022-11-07T20:48:50.401Z,7.10
2022-11-07T20:51:51.771Z,9.30
2022-11-07T20:57:35.500Z,7.25
2022-11-07T21:00:25.889Z,6.45
2022-11-07T21:07:34.325Z,8.05
2022-11-07T21:13:37.212Z,7.30
2022-11-07T21:16:23.220Z,7.40
2022-11-07T21:18:59.610Z,7.72
2022-11-07T21:21:53.433Z,8.10
2022-11-07T21:26:51.122Z,11.48
2022-11-07T21:33:34.687Z,8.90
2022-11-07T21:36:12.069Z,14.10
2022-11-07T21:38:46.720Z,13.57
2022-11-07T21:41:49.813Z,11.38
2022-11-07T21:44:31.427Z,8.27
2022-11-07T21:47:01.608Z,8.70
2022-11-07T21:49:36.159Z,10.57
2022-11-07T21:52:20.812Z,9.13
2022-11-07T21:55:01.242Z,6.78
2022-11-07T21:57:52.160Z,6.93
2022-11-07T22:00:51.584Z,7.50
2022-11-07T22:04:04.690Z,8.30
2022-11-07T22:06:37.130Z,7.30
2022-11-07T22:09:08.463Z,10.30
2022-11-07T22:11:35.600Z,8.18
2022-11-07T22:14:03.084Z,5.97
2022-11-07T22:16:30.077Z,8.70
2022-11-07T22:18:59.346Z,8.23
2022-11-07T22:21:26.221Z,6.60
2022-11-07T22:23:53.094Z,7.95
2022-11-07T22:26:22.771Z,6.50
2022-11-07T22:28:50.079Z,7.05
2022-11-07T22:31:30.115Z,5.28
2022-11-07T22:33:59.141Z,3.70
2022-11-07T22:36:26.486Z,7.05
2022-11-07T22:38:53.409Z,6.53
2022-11-07T22:41:22.946Z,6.38
2022-11-07T22:43:50.767Z,6.50
2022-11-07T22:46:23.014Z,6.65
2022-11-07T22:48:51.133Z,8.07
2022-11-07T22:51:21.291Z,7.68
2022-11-07T22:53:48.574Z,6.95
2022-11-07T22:56:19.724Z,4.63
2022-11-07T22:58:47.622Z,6.05
2022-11-07T23:01:23.107Z,5.75
2022-11-07T23:03:51.065Z,7.75
2022-11-07T23:06:19.385Z,4.97
2022-11-07T23:08:47.328Z,7.68
2022-11-07T23:14:10.424Z,8.02
2022-11-07T23:16:39.751Z,4.60
2022-11-07T23:19:10.884Z,6.28
2022-11-07T23:21:38.120Z,5.63
2022-11-07T23:24:05.876Z,6.85
2022-11-07T23:26:34.080Z,7.00
2022-11-07T23:29:10.505Z,6.20
2022-11-07T23:31:43.216Z,7.97
2022-11-07T23:34:10.644Z,6.45
2022-11-07T23:36:37.892Z,4.85
2022-11-07T23:39:06.204Z,9.63
2022-11-07T23:41:33.261Z,6.00
2022-11-07T23:44:00.108Z,6.40
2022-11-07T23:46:45.459Z,3.97
2022-11-07T23:49:30.785Z,6.95
2022-11-07T23:51:57.951Z,4.32
2022-11-07T23:54:43.993Z,7.18
2022-11-07T23:57:11.073Z,6.38
2022-11-07T23:59:56.537Z,4.82
